Time;durP1;ratioP1;P1;durP2;ratioP2;P2;SDS_P1;SDS_P2;PMS_P1;PMS_P2;Temp;Humidity;BMP_temperature;BMP_pressure;BME280_temperature;BME280_humidity;BME280_pressure;Samples;Min_cycle;Max_cycle;Signal;HPM_P1;HPM_P2
2022/12/20 00:01:08;;;;;;;16.13;7.27;;;;;;;1.05;77.97;96646.91;4971184;28;20418;-77
2022/12/20 00:03:33;;;;;;;14.77;7.75;;;;;;;0.93;78.85;96654.72;4969691;28;20524;-77
2022/12/20 00:05:58;;;;;;;14.07;7.60;;;;;;;0.91;78.54;96647.06;4987852;28;20864;-78
2022/12/20 00:08:24;;;;;;;13.40;6.67;;;;;;;0.89;79.37;96656.69;4977996;28;20432;-78
2022/12/20 00:10:49;;;;;;;13.50;7.23;;;;;;;0.90;79.01;96655.78;4978485;28;20497;-78
2022/12/20 00:13:15;;;;;;;13.50;6.80;;;;;;;0.72;78.67;96615.56;4981165;28;20908;-78
2022/12/20 00:15:40;;;;;;;14.60;7.30;;;;;;;1.04;78.48;96663.41;4993645;28;20404;-78
2022/12/20 00:18:06;;;;;;;14.00;6.93;;;;;;;0.71;78.60;96638.06;4994027;28;20521;-77
2022/12/20 00:20:31;;;;;;;13.80;6.35;;;;;;;0.81;78.65;96652.97;4990110;28;20559;-77
2022/12/20 00:22:57;;;;;;;15.80;7.33;;;;;;;1.01;78.58;96658.44;4989591;28;20442;-77
2022/12/20 00:25:22;;;;;;;11.50;6.60;;;;;;;0.96;77.31;96665.69;4990435;28;20529;-77
2022/12/20 00:27:48;;;;;;;12.90;7.17;;;;;;;0.74;77.86;96661.19;4985748;28;20412;-77
2022/12/20 00:30:14;;;;;;;13.00;6.70;;;;;;;0.74;78.19;96632.69;4974912;28;20413;-77
2022/12/20 00:32:40;;;;;;;11.93;6.15;;;;;;;0.77;77.82;96654.16;4992378;28;20404;-77
2022/12/20 00:35:06;;;;;;;13.63;7.25;;;;;;;0.86;77.49;96664.72;4989815;28;20409;-78
2022/12/20 00:37:32;;;;;;;11.68;6.80;;;;;;;0.70;77.64;96632.97;4978135;28;20453;-77
2022/12/20 00:39:57;;;;;;;13.98;7.35;;;;;;;0.92;76.86;96660.84;4982031;28;20411;-78
2022/12/20 00:42:23;;;;;;;13.13;6.77;;;;;;;0.78;76.82;96654.00;4974939;28;20633;-77
2022/12/20 00:44:48;;;;;;;10.93;6.73;;;;;;;0.49;77.56;96630.13;4982239;28;20427;-78
2022/12/20 00:47:14;;;;;;;11.47;6.53;;;;;;;0.72;77.84;96663.06;4993397;28;20400;-77
2022/12/20 00:49:39;;;;;;;13.37;7.07;;;;;;;0.57;77.51;96624.41;4993220;28;20416;-77
2022/12/20 00:52:05;;;;;;;13.00;6.20;;;;;;;0.84;76.64;96643.25;4992011;28;20404;-77
2022/12/20 00:54:30;;;;;;;12.93;6.85;;;;;;;0.61;76.85;96603.34;4973970;28;20421;-78
2022/12/20 00:56:56;;;;;;;12.57;5.82;;;;;;;0.91;76.07;96654.84;4990259;28;20489;-78
2022/12/20 00:59:21;;;;;;;12.33;6.50;;;;;;;0.90;76.86;96648.00;4990883;28;20443;-78
2022/12/20 01:01:47;;;;;;;11.27;6.20;;;;;;;0.96;76.01;96636.34;4993627;28;20421;-77
2022/12/20 01:04:12;;;;;;;13.27;6.93;;;;;;;0.89;76.19;96666.25;4978157;28;20524;-78
2022/12/20 01:06:38;;;;;;;11.10;6.18;;;;;;;0.62;76.59;96667.22;4992242;28;20446;-78
2022/12/20 01:09:04;;;;;;;11.18;6.43;;;;;;;0.31;77.08;96606.31;4994036;28;20416;-78
2022/12/20 01:11:34;;;;;;;13.18;6.38;;;;;;;0.75;76.91;96659.44;4993192;28;20411;-78
2022/12/20 01:14:11;;;;;;;12.95;6.68;;;;;;;0.85;76.36;96654.44;4983012;28;20423;-79
2022/12/20 01:16:47;;;;;;;11.13;6.40;;;;;;;0.82;75.28;96660.66;4986491;28;20909;-77
2022/12/20 01:19:16;;;;;;;12.87;6.23;;;;;;;0.85;76.11;96644.91;4969384;28;20495;-77
2022/12/20 01:21:44;;;;;;;12.02;6.35;;;;;;;0.73;76.27;96640.56;4992936;28;21061;-78
2022/12/20 01:24:14;;;;;;;13.00;5.95;;;;;;;0.87;75.73;96644.78;4970027;28;20435;-77
2022/12/20 01:26:40;;;;;;;10.98;5.30;;;;;;;0.81;75.83;96640.03;4987558;28;20412;-78
2022/12/20 01:29:06;;;;;;;9.82;5.85;;;;;;;0.58;75.96;96633.84;4975202;28;20504;-78
2022/12/20 01:31:32;;;;;;;8.93;5.35;;;;;;;0.50;76.14;96612.81;4974821;28;20512;-78
2022/12/20 01:33:59;;;;;;;14.60;6.87;;;;;;;0.43;77.39;96624.56;4970131;28;20502;-78
2022/12/20 01:36:28;;;;;;;12.93;6.07;;;;;;;0.43;77.43;96629.72;4990983;28;20424;-77
2022/12/20 01:38:59;;;;;;;11.55;6.53;;;;;;;0.06;76.46;96570.09;4992356;28;20482;-77
2022/12/20 01:41:27;;;;;;;11.83;6.03;;;;;;;0.52;76.58;96613.56;4993301;28;20495;-78
2022/12/20 01:43:59;;;;;;;12.70;6.07;;;;;;;0.48;76.47;96601.75;4992699;28;20918;-77
2022/12/20 01:46:33;;;;;;;12.17;5.73;;;;;;;0.48;76.48;96612.94;4992791;28;20418;-77
2022/12/20 01:49:10;;;;;;;11.15;5.63;;;;;;;0.56;76.60;96620.16;4990048;28;20419;-77
2022/12/20 01:51:41;;;;;;;11.82;6.25;;;;;;;0.35;76.98;96602.56;4992197;28;20531;-77
2022/12/20 01:54:13;;;;;;;11.47;6.00;;;;;;;0.27;76.20;96589.31;4974427;28;20424;-77
2022/12/20 01:56:42;;;;;;;10.50;5.65;;;;;;;0.11;77.03;96562.81;4992233;28;20419;-78
2022/12/20 01:59:08;;;;;;;11.45;6.28;;;;;;;0.62;75.82;96617.16;4992053;28;20984;-77
2022/12/20 02:01:33;;;;;;;12.68;5.95;;;;;;;0.36;75.82;96578.31;4992081;28;20412;-78
2022/12/20 02:03:59;;;;;;;10.48;6.40;;;;;;;0.11;76.03;96544.69;4972697;28;20817;-78
2022/12/20 02:06:26;;;;;;;10.40;6.00;;;;;;;0.46;75.62;96611.38;4991448;28;20424;-77
2022/12/20 02:08:58;;;;;;;11.17;5.70;;;;;;;0.43;76.03;96603.81;4992167;28;20423;-78
2022/12/20 02:11:26;;;;;;;10.35;5.78;;;;;;;0.45;76.12;96607.94;4990251;28;20416;-78
2022/12/20 02:13:57;;;;;;;10.50;6.13;;;;;;;0.49;76.13;96608.56;4991867;28;20404;-78
2022/12/20 02:16:28;;;;;;;10.18;6.07;;;;;;;0.24;75.64;96573.19;4991034;28;20416;-77
2022/12/20 02:19:08;;;;;;;11.30;5.68;;;;;;;0.21;76.07;96584.56;4991482;28;20440;-76
2022/12/20 02:22:22;;;;;;;13.30;5.70;;;;;;;0.46;76.04;96608.78;4991313;28;20499;-77
2022/12/20 02:24:59;;;;;;;10.30;5.47;;;;;;;0.63;75.74;96601.50;4957529;28;20426;-78
2022/12/20 02:27:30;;;;;;;10.77;6.20;;;;;;;0.66;75.36;96605.66;4988933;28;20420;-78
2022/12/20 02:30:01;;;;;;;9.77;5.35;;;;;;;0.50;74.54;96605.06;4990256;28;20401;-79
2022/12/20 02:32:43;;;;;;;11.73;6.05;;;;;;;0.36;76.06;96606.81;4975927;28;20449;-78
2022/12/20 02:35:11;;;;;;;9.73;5.60;;;;;;;0.45;76.23;96604.53;4972785;28;20934;-79
2022/12/20 02:37:53;;;;;;;10.77;5.50;;;;;;;0.34;75.04;96600.94;4978956;28;20469;-78
2022/12/20 02:40:23;;;;;;;9.60;5.65;;;;;;;0.48;75.28;96606.91;4971160;28;20406;-77
2022/12/20 02:42:54;;;;;;;11.27;5.78;;;;;;;0.38;75.63;96596.34;4981059;28;20508;-76
2022/12/20 02:45:24;;;;;;;12.43;6.05;;;;;;;0.42;75.10;96586.63;4979814;28;20535;-77
2022/12/20 02:48:19;;;;;;;11.23;5.88;;;;;;;0.03;75.34;96538.38;4987238;28;20425;-77
2022/12/20 02:50:48;;;;;;;9.77;5.50;;;;;;;0.22;74.89;96565.50;4978811;28;20429;-77
2022/12/20 02:53:15;;;;;;;10.55;5.38;;;;;;;0.17;75.48;96588.31;4974411;28;20451;-76
2022/12/20 02:56:04;;;;;;;10.05;5.38;;;;;;;0.25;75.71;96598.16;4991368;28;20412;-77
2022/12/20 02:58:35;;;;;;;11.48;6.00;;;;;;;0.38;75.52;96596.34;4970535;28;20905;-76
2022/12/20 03:01:07;;;;;;;10.43;6.05;;;;;;;0.17;76.14;96595.25;4978235;28;20449;-77
2022/12/20 03:03:34;;;;;;;13.00;6.25;;;;;;;-0.04;75.77;96581.97;4976657;28;20952;-77
2022/12/20 03:06:00;;;;;;;10.77;5.75;;;;;;;-0.51;76.59;96512.72;4991171;28;20533;-76
2022/12/20 03:08:25;;;;;;;11.68;5.53;;;;;;;-0.19;77.36;96575.25;4991719;28;20432;-77
2022/12/20 03:10:53;;;;;;;12.23;6.85;;;;;;;-0.04;76.77;96575.06;4984443;28;20457;-76
2022/12/20 03:13:20;;;;;;;11.15;6.25;;;;;;;0.05;76.90;96570.19;4971194;28;20429;-77
2022/12/20 03:15:45;;;;;;;10.70;5.72;;;;;;;0.12;76.94;96554.13;4975544;28;20835;-77
2022/12/20 03:18:11;;;;;;;10.80;6.10;;;;;;;-0.30;77.09;96505.28;4972510;28;20469;-77
2022/12/20 03:20:36;;;;;;;11.60;6.30;;;;;;;0.10;76.47;96570.69;4968792;28;20445;-76
2022/12/20 03:23:02;;;;;;;11.45;6.50;;;;;;;-0.19;77.23;96513.16;4971603;28;20421;-78
2022/12/20 03:25:28;;;;;;;12.00;6.40;;;;;;;0.10;76.57;96565.50;4972736;28;20424;-77
2022/12/20 03:27:53;;;;;;;11.63;6.57;;;;;;;0.05;77.51;96560.66;4971463;28;20459;-78
2022/12/20 03:30:19;;;;;;;13.38;6.75;;;;;;;0.06;77.37;96570.09;4987815;28;20895;-77
2022/12/20 03:32:44;;;;;;;12.30;7.18;;;;;;;0.07;77.05;96574.34;4990405;28;20788;-77
2022/12/20 03:35:10;;;;;;;12.67;7.47;;;;;;;-0.27;77.77;96520.59;4984886;28;20452;-77
2022/12/20 03:37:35;;;;;;;12.30;7.53;;;;;;;-0.44;78.14;96499.28;4970808;28;20445;-77
2022/12/20 03:40:01;;;;;;;12.90;7.87;;;;;;;0.07;77.75;96576.09;4971270;28;20417;-78
2022/12/20 03:42:27;;;;;;;12.23;7.03;;;;;;;0.09;76.47;96575.03;4978242;28;20844;-77
2022/12/20 03:44:52;;;;;;;11.13;6.60;;;;;;;-0.15;77.51;96541.28;4976925;28;20827;-77
2022/12/20 03:47:18;;;;;;;16.53;6.87;;;;;;;-0.44;77.42;96506.22;4992028;28;20447;-78
2022/12/20 03:49:43;;;;;;;10.20;6.17;;;;;;;-0.10;77.39;96566.88;4990551;28;20391;-78
2022/12/20 03:52:13;;;;;;;12.90;6.80;;;;;;;-0.18;77.45;96540.69;4976499;28;20928;-77
2022/12/20 03:54:38;;;;;;;15.57;6.57;;;;;;;-0.06;76.85;96558.78;4980573;28;20185;-78
2022/12/20 03:57:04;;;;;;;10.95;6.82;;;;;;;-0.13;77.87;96570.50;4980254;28;20854;-78
2022/12/20 03:59:30;;;;;;;12.43;6.93;;;;;;;-0.11;77.77;96557.44;4991971;28;21017;-78
2022/12/20 04:01:55;;;;;;;12.13;5.73;;;;;;;0.02;77.42;96567.78;4990806;28;20187;-78
2022/12/20 04:04:21;;;;;;;13.67;7.00;;;;;;;-0.12;77.17;96572.16;4997335;28;20454;-78
2022/12/20 04:06:47;;;;;;;16.47;7.47;;;;;;;-0.30;77.22;96557.84;4992320;28;20217;-78
2022/12/20 04:09:13;;;;;;;11.87;7.10;;;;;;;-0.11;77.33;96570.41;4979500;28;20417;-78
2022/12/20 04:11:38;;;;;;;17.27;7.57;;;;;;;-0.10;76.92;96566.88;4983803;28;20427;-78
2022/12/20 04:14:04;;;;;;;13.87;7.57;;;;;;;-0.43;77.76;96563.00;4997102;28;20422;-77
2022/12/20 04:16:30;;;;;;;13.98;7.60;;;;;;;-0.68;78.31;96550.03;4997856;28;20423;-78
2022/12/20 04:18:56;;;;;;;13.48;7.30;;;;;;;-0.65;78.64;96560.19;4996303;28;20436;-78
2022/12/20 04:21:30;;;;;;;12.73;7.53;;;;;;;-0.61;79.04;96563.41;4983244;28;20444;-77
2022/12/20 04:23:57;;;;;;;13.47;7.20;;;;;;;-0.81;79.06;96531.09;4987379;28;20441;-76
2022/12/20 04:26:23;;;;;;;13.25;7.00;;;;;;;-0.56;79.50;96561.34;4986285;28;20466;-76
2022/12/20 04:28:49;;;;;;;14.80;7.45;;;;;;;-0.63;79.25;96542.81;4977135;28;20421;-77
2022/12/20 04:31:14;;;;;;;15.13;7.57;;;;;;;-0.52;78.39;96558.44;4979156;28;20476;-77
2022/12/20 04:33:40;;;;;;;13.10;7.90;;;;;;;-0.81;78.73;96500.91;4989701;28;20419;-78
2022/12/20 04:36:06;;;;;;;13.50;6.75;;;;;;;-0.63;78.07;96513.53;4989462;28;20446;-78
2022/12/20 04:38:32;;;;;;;14.77;7.88;;;;;;;-0.43;78.20;96551.81;4985197;28;20468;-78
2022/12/20 04:40:58;;;;;;;14.20;7.30;;;;;;;-0.58;78.02;96509.72;4978933;28;20464;-78
2022/12/20 04:43:24;;;;;;;12.80;6.40;;;;;;;-0.40;78.25;96551.63;4987309;28;20213;-78
2022/12/20 04:45:57;;;;;;;13.93;7.03;;;;;;;-0.42;77.65;96548.31;4981337;28;20456;-78
2022/12/20 04:48:28;;;;;;;14.93;7.75;;;;;;;-0.53;78.34;96543.88;4976058;28;20499;-78
2022/12/20 04:50:55;;;;;;;12.80;7.30;;;;;;;-0.50;78.51;96551.41;4979345;28;20441;-79
2022/12/20 04:56:06;;;;;;;12.88;6.85;;;;;;;-0.63;78.83;96547.16;4985216;28;20414;-79
2022/12/20 04:58:32;;;;;;;16.13;8.35;;;;;;;-0.65;78.74;96552.41;4976519;28;20520;-78
2022/12/20 05:00:57;;;;;;;14.60;8.20;;;;;;;-0.50;79.20;96548.81;4974210;28;20480;-78
2022/12/20 05:03:24;;;;;;;15.80;8.10;;;;;;;-0.53;77.74;96543.88;4986784;28;20444;-78
2022/12/20 05:05:50;;;;;;;13.17;7.20;;;;;;;-0.64;78.19;96551.50;4974278;28;20925;-78
2022/12/20 05:08:16;;;;;;;13.68;7.60;;;;;;;-0.76;78.45;96537.59;4980761;28;20438;-77
2022/12/20 05:10:42;;;;;;;13.25;7.82;;;;;;;-0.65;79.00;96541.25;4973621;28;20828;-77
2022/12/20 05:13:07;;;;;;;13.47;7.47;;;;;;;-0.83;78.77;96499.34;4982582;28;20867;-77
2022/12/20 05:15:33;;;;;;;13.02;7.60;;;;;;;-0.64;78.30;96556.66;4978137;28;20426;-78
2022/12/20 05:17:59;;;;;;;14.17;7.83;;;;;;;-0.73;78.32;96533.16;4972171;28;20511;-78
2022/12/20 05:20:29;;;;;;;15.77;7.63;;;;;;;-0.67;78.44;96546.50;4982724;28;20916;-78
2022/12/20 05:26:16;;;;;;;14.43;7.93;;;;;;;-0.67;78.86;96554.28;4975488;28;20521;-77
2022/12/20 05:28:34;;;;;;;17.33;8.83;;;;;;;-0.70;78.20;96543.31;4974061;28;20461;-77
2022/12/20 05:31:00;;;;;;;16.10;8.10;;;;;;;-0.73;78.92;96559.03;4973310;28;20425;-77
2022/12/20 05:33:26;;;;;;;14.15;7.78;;;;;;;-0.77;79.07;96553.22;4972998;28;20504;-77
2022/12/20 05:35:51;;;;;;;16.43;8.67;;;;;;;-0.82;78.43;96550.09;4973035;28;20520;-78
2022/12/20 05:38:17;;;;;;;16.30;8.33;;;;;;;-1.00;78.94;96521.09;4974086;28;21000;-77
2022/12/20 05:40:43;;;;;;;14.70;8.00;;;;;;;-0.96;79.69;96545.84;4990493;28;20419;-77
2022/12/20 05:43:08;;;;;;;18.83;8.23;;;;;;;-1.30;79.29;96482.59;4993333;28;20799;-77
2022/12/20 05:45:34;;;;;;;12.70;6.63;;;;;;;-0.81;79.49;96562.09;4993688;28;20246;-78
2022/12/20 05:48:00;;;;;;;13.60;6.90;;;;;;;-0.81;79.69;96555.19;4990282;28;20256;-78
2022/12/20 05:50:26;;;;;;;12.90;6.27;;;;;;;-0.69;79.26;96568.25;4974066;28;20186;-78
2022/12/20 05:52:51;;;;;;;15.37;7.97;;;;;;;-0.93;78.13;96501.69;4973836;28;20655;-78
2022/12/20 05:55:17;;;;;;;14.63;7.83;;;;;;;-0.81;78.48;96520.75;4973920;28;20425;-77
2022/12/20 05:57:42;;;;;;;19.30;8.75;;;;;;;-0.60;78.19;96557.28;4972629;28;20464;-77
2022/12/20 06:00:08;;;;;;;13.77;6.80;;;;;;;-0.53;78.52;96553.38;4974576;28;20169;-78
2022/12/20 06:02:34;;;;;;;15.80;7.23;;;;;;;-0.54;78.45;96562.06;4974515;28;20289;-78
2022/12/20 06:04:59;;;;;;;12.40;7.07;;;;;;;-0.55;78.42;96548.31;4981714;28;20308;-78
2022/12/20 06:07:27;;;;;;;13.77;6.87;;;;;;;-0.55;77.81;96563.81;4993674;28;20220;-78
2022/12/20 06:09:53;;;;;;;13.27;6.60;;;;;;;-0.69;78.05;96553.53;4993641;28;20177;-78
2022/12/20 06:12:19;;;;;;;15.23;7.47;;;;;;;-0.66;78.97;96561.09;4983153;28;20254;-78
2022/12/20 06:14:44;;;;;;;15.67;6.77;;;;;;;-0.61;78.31;96561.66;4978464;28;20186;-78
2022/12/20 06:17:10;;;;;;;12.00;6.37;;;;;;;-0.62;78.20;96570.34;4993325;28;20200;-78
2022/12/20 06:19:36;;;;;;;13.27;6.70;;;;;;;-0.76;78.40;96540.19;4993202;28;20181;-77
2022/12/20 06:22:02;;;;;;;13.83;7.43;;;;;;;-0.94;79.04;96488.84;4992154;28;20199;-77
2022/12/20 06:24:27;;;;;;;15.73;7.10;;;;;;;-0.49;78.29;96550.47;4976006;28;20649;-77
2022/12/20 06:26:53;;;;;;;17.00;7.27;;;;;;;-0.32;77.75;96562.28;4977179;28;20193;-76
2022/12/20 06:29:19;;;;;;;15.70;7.90;;;;;;;-0.24;77.56;96564.38;4992608;28;20185;-76
2022/12/20 06:31:46;;;;;;;14.13;7.77;;;;;;;-0.11;78.08;96562.63;4974064;28;20676;-76
2022/12/20 06:34:11;;;;;;;16.77;7.93;;;;;;;-0.57;76.69;96502.78;4978924;28;20170;-77
2022/12/20 06:36:37;;;;;;;13.47;7.07;;;;;;;-0.24;77.62;96561.78;4993938;28;20185;-76
2022/12/20 06:39:02;;;;;;;15.00;6.30;;;;;;;-0.30;76.86;96550.09;4981616;28;20986;-76
2022/12/20 06:41:27;;;;;;;17.53;6.43;;;;;;;-0.12;76.95;96558.38;4973056;28;20181;-76
2022/12/20 06:43:53;;;;;;;14.70;7.23;;;;;;;-0.07;76.83;96544.19;4991385;28;20187;-77
2022/12/20 06:46:18;;;;;;;14.33;6.63;;;;;;;0.76;76.27;96560.03;4992175;28;20185;-74
2022/12/20 06:48:44;;;;;;;16.20;7.30;;;;;;;1.56;73.33;96552.50;4992308;28;20177;-76
2022/12/20 06:51:09;;;;;;;13.70;7.50;;;;;;;1.94;70.21;96541.81;4992497;28;20181;-76
2022/12/20 06:53:35;;;;;;;14.37;7.10;;;;;;;2.78;68.63;96551.72;4992278;28;20264;-77
2022/12/20 06:56:00;;;;;;;15.37;6.57;;;;;;;4.01;65.04;96558.09;4982897;28;20217;-77
2022/12/20 06:58:27;;;;;;;13.37;6.90;;;;;;;5.08;60.06;96562.75;4980627;28;20206;-77
2022/12/20 07:00:53;;;;;;;15.87;6.57;;;;;;;5.72;57.25;96557.00;4987916;28;20196;-77
2022/12/20 07:03:19;;;;;;;12.10;6.00;;;;;;;5.72;56.24;96528.28;4992131;28;20195;-77
2022/12/20 07:05:51;;;;;;;10.00;6.00;;;;;;;4.83;58.22;96531.94;4984998;28;20233;-77
2022/12/20 07:08:16;;;;;;;15.93;5.83;;;;;;;5.23;57.88;96498.75;4971991;28;20185;-76
2022/12/20 07:10:42;;;;;;;13.77;6.33;;;;;;;6.03;56.38;96539.41;4976640;28;20208;-75
2022/12/20 07:13:08;;;;;;;12.33;7.30;;;;;;;6.16;55.36;96521.63;4974393;28;20660;-76
2022/12/20 07:15:33;;;;;;;12.43;6.17;;;;;;;7.03;53.95;96540.38;4982830;28;20215;-76
2022/12/20 07:17:59;;;;;;;13.10;6.83;;;;;;;7.40;51.38;96506.19;4972147;28;20201;-77
2022/12/20 07:20:24;;;;;;;13.87;7.13;;;;;;;7.25;51.14;96538.31;4964725;28;20647;-76
2022/12/20 07:22:50;;;;;;;12.47;6.23;;;;;;;7.59;50.91;96539.28;4966270;28;21851;-75
2022/12/20 07:25:17;;;;;;;11.80;6.10;;;;;;;8.30;49.74;96542.59;4966893;28;20720;-76
2022/12/20 07:27:46;;;;;;;12.33;7.30;;;;;;;9.40;47.63;96539.13;4966774;28;20184;-76
2022/12/20 07:30:12;;;;;;;9.77;5.57;;;;;;;10.70;44.40;96533.78;4973108;28;20243;-74
2022/12/20 07:32:37;;;;;;;22.87;7.50;;;;;;;12.07;40.80;96526.88;4971740;28;20181;-74
2022/12/20 07:35:03;;;;;;;10.73;6.07;;;;;;;13.60;37.34;96523.44;4972162;28;20178;-74
2022/12/20 07:37:29;;;;;;;14.03;6.80;;;;;;;13.70;33.86;96521.31;4987094;28;20742;-76
2022/12/20 07:39:54;;;;;;;12.20;6.87;;;;;;;15.20;32.26;96529.72;4990809;28;20172;-74
2022/12/20 07:42:19;;;;;;;10.87;6.57;;;;;;;16.07;29.85;96527.94;4991186;28;20177;-77
2022/12/20 07:44:46;;;;;;;11.60;6.10;;;;;;;17.05;27.83;96533.34;4990955;28;20196;-76
2022/12/20 07:47:11;;;;;;;12.80;6.97;;;;;;;17.52;27.16;96524.97;4991225;28;20177;-77
2022/12/20 07:49:37;;;;;;;13.27;6.60;;;;;;;18.15;25.68;96513.53;4976010;28;20182;-77
2022/12/20 07:52:04;;;;;;;12.93;6.07;;;;;;;17.07;25.70;96510.81;4971868;28;20189;-77
2022/12/20 07:54:34;;;;;;;14.40;7.23;;;;;;;14.43;28.90;96506.88;4971727;28;20213;-74
2022/12/20 07:57:05;;;;;;;14.30;7.33;;;;;;;12.73;31.61;96502.25;4971888;28;20185;-76
2022/12/20 07:59:39;;;;;;;12.43;6.80;;;;;;;11.48;34.18;96510.84;4971813;28;20181;-76
2022/12/20 08:02:05;;;;;;;14.57;6.67;;;;;;;10.25;36.11;96505.44;4989274;28;20193;-76
2022/12/20 08:04:31;;;;;;;13.80;7.50;;;;;;;9.43;37.91;96505.44;4977620;28;20652;-75
2022/12/20 08:07:00;;;;;;;10.20;6.50;;;;;;;9.57;38.67;96500.53;4979668;28;20577;-77
2022/12/20 08:09:28;;;;;;;10.47;6.20;;;;;;;10.30;36.60;96446.03;4979538;28;20204;-76
2022/12/20 08:11:54;;;;;;;13.47;6.53;;;;;;;11.07;34.23;96509.44;4971438;28;20597;-75
2022/12/20 08:14:20;;;;;;;11.67;6.50;;;;;;;8.69;37.49;96461.63;4988975;28;20181;-74
2022/12/20 08:16:45;;;;;;;13.67;6.13;;;;;;;8.56;39.66;96508.47;4969125;28;20182;-74
2022/12/20 08:19:11;;;;;;;10.47;6.20;;;;;;;8.32;39.59;96480.31;4971374;28;20245;-75
2022/12/20 08:21:37;;;;;;;13.10;6.60;;;;;;;8.29;40.00;96487.66;4970731;28;20231;-76
2022/12/20 08:24:02;;;;;;;17.03;6.87;;;;;;;8.50;39.89;96496.00;4964894;28;20220;-75
2022/12/20 08:26:28;;;;;;;10.70;6.33;;;;;;;8.66;39.68;96496.06;4971052;28;20189;-76
2022/12/20 08:28:54;;;;;;;12.37;6.57;;;;;;;8.32;39.48;96490.81;4973238;28;20201;-77
2022/12/20 08:31:20;;;;;;;12.80;7.27;;;;;;;8.19;40.35;96482.53;4990178;28;20208;-76
2022/12/20 08:33:45;;;;;;;14.83;6.80;;;;;;;7.63;41.29;96485.59;4993947;28;20183;-76
2022/12/20 08:36:12;;;;;;;12.10;6.87;;;;;;;7.23;42.93;96453.81;4993227;28;20558;-76
2022/12/20 08:38:39;;;;;;;16.47;6.80;;;;;;;7.32;42.77;96469.47;4985577;28;20264;-76
2022/12/20 08:41:12;;;;;;;12.67;6.43;;;;;;;7.61;43.30;96484.09;4974899;28;20178;-74
2022/12/20 08:43:39;;;;;;;17.27;7.03;;;;;;;7.94;43.39;96476.31;4974589;28;20649;-75
2022/12/20 08:46:05;;;;;;;11.10;6.60;;;;;;;8.27;42.24;96479.94;4965924;28;20174;-76
2022/12/20 08:48:31;;;;;;;12.30;6.43;;;;;;;7.69;41.45;96479.75;4966532;28;20668;-76
2022/12/20 08:50:59;;;;;;;14.73;6.40;;;;;;;7.46;42.93;96483.81;4982693;28;20173;-75
2022/12/20 08:53:25;;;;;;;14.83;6.67;;;;;;;7.23;41.94;96480.84;4993728;28;20188;-76
2022/12/20 08:55:52;;;;;;;11.80;6.50;;;;;;;6.94;43.45;96478.41;4993626;28;20173;-76
2022/12/20 08:58:17;;;;;;;11.80;6.20;;;;;;;6.97;42.11;96479.91;4993775;28;20203;-76
2022/12/20 09:00:43;;;;;;;9.93;6.40;;;;;;;6.90;43.29;96464.00;4993940;28;20177;-75
2022/12/20 09:03:10;;;;;;;13.37;6.07;;;;;;;7.17;43.08;96468.34;4983872;28;20181;-75
2022/12/20 09:05:36;;;;;;;14.20;6.03;;;;;;;7.35;43.29;96463.91;4974268;28;20214;-75
2022/12/20 09:08:01;;;;;;;13.60;6.27;;;;;;;7.50;42.56;96464.19;4974217;28;20189;-75
2022/12/20 09:10:26;;;;;;;12.00;6.50;;;;;;;7.63;43.00;96463.78;4974316;28;20176;-73
2022/12/20 09:12:52;;;;;;;10.87;5.37;;;;;;;7.78;42.24;96442.13;4974564;28;20660;-75
2022/12/20 09:15:17;;;;;;;13.80;7.00;;;;;;;8.13;42.17;96456.91;4974332;28;20178;-75
2022/12/20 09:17:43;;;;;;;12.47;5.93;;;;;;;7.92;41.00;96417.97;4974107;28;20197;-74
2022/12/20 09:20:08;;;;;;;12.93;6.17;;;;;;;8.10;40.95;96451.16;4973965;28;20232;-74
2022/12/20 09:22:34;;;;;;;18.87;6.30;;;;;;;8.02;40.35;96451.13;4973780;28;20224;-75
2022/12/20 09:24:59;;;;;;;9.47;5.97;;;;;;;7.82;41.76;96443.47;4973973;28;20639;-75
2022/12/20 09:27:27;;;;;;;10.40;5.87;;;;;;;7.89;42.45;96439.25;4974158;28;20264;-75
2022/12/20 09:29:52;;;;;;;12.43;6.20;;;;;;;7.78;41.59;96430.81;4973994;28;20261;-75
2022/12/20 09:32:18;;;;;;;10.37;5.50;;;;;;;7.75;41.90;96421.47;4973552;28;20339;-74
2022/12/20 09:34:43;;;;;;;13.93;6.47;;;;;;;7.39;41.42;96425.13;4973367;28;20174;-75
2022/12/20 09:37:09;;;;;;;11.67;5.83;;;;;;;7.13;42.38;96420.69;4973343;28;20240;-75
2022/12/20 09:39:35;;;;;;;11.17;6.23;;;;;;;7.12;43.43;96419.03;4972680;28;20174;-75
2022/12/20 09:42:06;;;;;;;14.13;5.83;;;;;;;7.10;43.01;96412.28;4969284;28;20720;-76
2022/12/20 09:44:39;;;;;;;13.73;6.67;;;;;;;7.03;43.81;96419.94;4973301;28;20174;-75
2022/12/20 09:47:17;;;;;;;14.20;5.80;;;;;;;6.89;42.32;96403.94;4972775;28;20204;-75
2022/12/20 09:49:45;;;;;;;12.87;6.13;;;;;;;6.60;42.71;96412.81;4973319;28;20664;-74
2022/12/20 09:52:50;;;;;;;14.43;6.30;;;;;;;6.45;43.21;96398.59;4972758;28;20173;-74
2022/12/20 09:55:51;;;;;;;12.73;7.20;;;;;;;6.25;43.57;96400.47;4981543;28;20683;-75
2022/12/20 09:58:49;;;;;;;11.07;5.53;;;;;;;6.27;44.30;96395.94;4989454;28;20621;-74
2022/12/20 10:01:23;;;;;;;11.90;5.80;;;;;;;5.99;44.17;96391.66;4990688;28;20193;-75
2022/12/20 10:03:49;;;;;;;12.63;6.70;;;;;;;5.73;44.77;96357.50;4992238;28;20254;-76
2022/12/20 10:06:36;;;;;;;8.93;5.17;;;;;;;6.01;44.76;96385.31;4992059;28;20229;-76
2022/12/20 10:09:04;;;;;;;12.63;6.07;;;;;;;5.95;44.04;96366.78;4992173;28;20177;-76
2022/12/20 10:11:55;;;;;;;13.50;6.20;;;;;;;5.74;44.53;96366.97;4992132;28;20177;-76
2022/12/20 10:14:39;;;;;;;12.33;5.87;;;;;;;5.15;45.76;96368.09;4974418;28;20340;-76
2022/12/20 10:17:14;;;;;;;11.67;6.00;;;;;;;5.08;46.50;96358.38;4972752;28;20173;-76
2022/12/20 10:20:13;;;;;;;15.47;6.40;;;;;;;5.11;46.65;96337.19;4972364;28;20256;-75
2022/12/20 10:22:57;;;;;;;12.53;6.70;;;;;;;5.24;46.61;96337.72;4980894;28;20170;-77
2022/12/20 10:25:29;;;;;;;12.93;6.07;;;;;;;5.25;46.19;96306.25;4981809;28;20201;-76
2022/12/20 10:27:58;;;;;;;14.70;6.93;;;;;;;5.42;46.96;96311.72;4985379;28;20200;-76
2022/12/20 10:30:26;;;;;;;10.53;6.00;;;;;;;5.18;45.80;96315.63;4984569;28;20173;-75
2022/12/20 10:32:54;;;;;;;12.70;6.20;;;;;;;4.82;46.78;96304.16;4992506;28;20219;-76
2022/12/20 10:35:36;;;;;;;14.80;6.03;;;;;;;4.83;47.30;96300.59;4980316;28;20173;-75
2022/12/20 10:38:14;;;;;;;14.80;6.00;;;;;;;4.91;48.47;96302.50;4992323;28;20676;-74
2022/12/20 10:41:00;;;;;;;10.87;6.40;;;;;;;4.82;47.71;96298.13;4988120;28;20170;-76
2022/12/20 10:43:27;;;;;;;14.23;5.90;;;;;;;4.85;48.84;96290.81;4973066;28;20181;-77
2022/12/20 10:46:06;;;;;;;16.03;7.00;;;;;;;4.60;48.71;96280.97;4986379;28;20191;-78
2022/12/20 10:48:34;;;;;;;15.70;6.73;;;;;;;4.32;49.11;96233.13;4978889;28;20205;-78
2022/12/20 10:51:08;;;;;;;11.63;6.93;;;;;;;4.58;48.09;96251.63;4989753;28;20185;-78
2022/12/20 10:53:34;;;;;;;9.90;6.07;;;;;;;4.80;48.35;96272.16;4973578;28;20562;-78
2022/12/20 10:56:10;;;;;;;9.57;6.17;;;;;;;4.66;46.93;96243.09;4972007;28;20558;-77
2022/12/20 10:58:37;;;;;;;11.20;6.20;;;;;;;4.75;47.07;96269.16;4971654;28;20834;-77
2022/12/20 11:01:12;;;;;;;11.13;6.17;;;;;;;4.57;47.29;96254.38;4971674;28;20235;-78
2022/12/20 11:04:00;;;;;;;10.87;5.83;;;;;;;4.68;47.54;96268.06;4970543;28;20537;-78
2022/12/20 11:06:46;;;;;;;12.70;6.03;;;;;;;4.72;48.08;96259.00;4971790;28;20570;-78
2022/12/20 11:09:35;;;;;;;10.53;6.00;;;;;;;4.81;47.42;96252.13;4971062;28;20568;-77
2022/12/20 11:12:05;;;;;;;11.23;5.77;;;;;;;4.80;47.56;96259.13;4971696;28;20185;-77
2022/12/20 11:14:34;;;;;;;12.40;6.20;;;;;;;4.55;48.36;96226.66;4971391;28;20181;-78
2022/12/20 11:17:06;;;;;;;11.07;6.10;;;;;;;4.65;47.31;96252.72;4971585;28;20189;-77
2022/12/20 11:19:44;;;;;;;11.70;6.17;;;;;;;4.62;47.49;96252.16;4971656;28;20244;-78
2022/12/20 11:22:15;;;;;;;22.80;8.37;;;;;;;4.72;48.33;96238.13;4971756;28;20177;-78
2022/12/20 11:24:57;;;;;;;16.40;7.33;;;;;;;4.89;48.93;96232.19;4971474;28;20229;-78
2022/12/20 11:27:30;;;;;;;12.77;6.57;;;;;;;5.09;48.52;96239.97;4985477;28;20216;-78
2022/12/20 11:30:03;;;;;;;19.73;6.83;;;;;;;5.24;48.68;96228.91;4989636;28;20255;-78
2022/12/20 11:32:57;;;;;;;13.30;6.17;;;;;;;5.38;48.34;96225.00;4990896;28;20661;-78
2022/12/20 11:35:51;;;;;;;13.47;5.67;;;;;;;5.43;46.53;96227.19;4986074;28;20200;-78
2022/12/20 11:38:25;;;;;;;15.93;7.10;;;;;;;5.53;46.97;96222.75;4990939;28;20688;-78
2022/12/20 11:40:59;;;;;;;19.10;7.33;;;;;;;5.44;46.53;96210.56;4989578;28;20182;-78
2022/12/20 11:43:24;;;;;;;15.53;6.57;;;;;;;5.07;46.47;96211.41;4964507;28;20657;-78
2022/12/20 11:46:24;;;;;;;10.77;5.73;;;;;;;5.03;46.24;96207.41;4971273;28;20177;-78